Time;durP1;ratioP1;P1;durP2;ratioP2;P2;SDS_P1;SDS_P2;PMS_P1;PMS_P2;Temp;Humidity;BMP_temperature;BMP_pressure;BME280_temperature;BME280_humidity;BME280_pressure;Samples;Min_cycle;Max_cycle;Signal;HPM_P1;HPM_P2
2024/01/06 00:01:19;;;;;;;88.10;38.53;;;-0.60;99.90;;;;;;5072719;28;20466;-79
2024/01/06 00:03:45;;;;;;;98.82;42.17;;;-0.60;99.90;;;;;;5072008;28;20024;-78
2024/01/06 00:06:14;;;;;;;96.25;41.80;;;-0.60;99.90;;;;;;5054530;28;20028;-78
2024/01/06 00:08:40;;;;;;;112.93;45.47;;;-0.60;99.90;;;;;;5071589;28;20035;-78
2024/01/06 00:11:05;;;;;;;110.32;44.80;;;-0.60;99.90;;;;;;5072122;28;20029;-77
2024/01/06 00:13:31;;;;;;;107.40;43.90;;;-0.60;99.90;;;;;;5054089;28;20017;-80
2024/01/06 00:15:57;;;;;;;88.40;39.75;;;-0.60;99.90;;;;;;5072048;28;20054;-79
2024/01/06 00:18:22;;;;;;;97.75;39.22;;;-0.60;99.90;;;;;;5071942;28;20028;-79
2024/01/06 00:20:48;;;;;;;82.05;35.20;;;-0.60;99.90;;;;;;5055644;28;20021;-78
2024/01/06 00:23:14;;;;;;;87.13;35.00;;;-0.60;99.90;;;;;;5075488;28;20107;-78
2024/01/06 00:25:39;;;;;;;83.63;33.28;;;-0.60;99.90;;;;;;5057979;28;20032;-79
2024/01/06 00:28:05;;;;;;;79.82;35.35;;;-0.50;99.90;;;;;;5057853;28;20025;-79
2024/01/06 00:30:31;;;;;;;77.63;33.63;;;-0.50;99.90;;;;;;5076011;28;20451;-78
2024/01/06 00:32:56;;;;;;;74.43;32.35;;;-0.50;99.90;;;;;;5057638;28;20147;-78
2024/01/06 00:35:22;;;;;;;78.55;32.88;;;-0.50;99.90;;;;;;5057943;28;20029;-79
2024/01/06 00:37:48;;;;;;;69.05;32.45;;;-0.50;99.90;;;;;;5075564;28;20107;-78
2024/01/06 00:40:13;;;;;;;71.65;32.67;;;-0.50;99.90;;;;;;5075816;28;20020;-79
2024/01/06 00:42:39;;;;;;;68.95;31.52;;;-0.40;99.90;;;;;;5057227;28;20028;-79
2024/01/06 00:45:05;;;;;;;67.40;31.05;;;-0.40;99.90;;;;;;5075715;28;20021;-78
2024/01/06 00:47:31;;;;;;;67.47;31.25;;;-0.40;99.90;;;;;;5057386;28;20027;-80
2024/01/06 00:49:56;;;;;;;54.55;27.48;;;-0.40;99.90;;;;;;5057537;28;20119;-78
2024/01/06 00:52:22;;;;;;;59.17;27.80;;;-0.40;99.90;;;;;;5075486;28;20021;-78
2024/01/06 00:54:48;;;;;;;55.55;26.58;;;-0.30;99.90;;;;;;5057928;28;20107;-79
2024/01/06 00:57:13;;;;;;;60.75;28.63;;;-0.30;99.90;;;;;;5075498;28;20033;-80
2024/01/06 00:59:39;;;;;;;64.32;28.27;;;-0.20;99.90;;;;;;5057671;28;20028;-80
2024/01/06 01:02:05;;;;;;;49.05;24.65;;;-0.20;99.90;;;;;;5057445;28;20028;-80
2024/01/06 01:04:30;;;;;;;53.20;26.27;;;-0.20;99.90;;;;;;5057567;28;20489;-78
2024/01/06 01:06:56;;;;;;;55.72;26.98;;;-0.10;99.90;;;;;;5057094;28;20020;-78
2024/01/06 01:09:22;;;;;;;57.40;27.50;;;-0.10;99.90;;;;;;5057628;28;20025;-78
2024/01/06 01:11:47;;;;;;;55.90;26.45;;;-0.10;99.90;;;;;;5056502;28;20500;-78
2024/01/06 01:14:13;;;;;;;45.45;25.27;;;-0.10;99.90;;;;;;5057027;28;20024;-78
2024/01/06 01:16:39;;;;;;;52.28;26.77;;;0.00;99.90;;;;;;5056931;28;20020;-78
2024/01/06 01:19:04;;;;;;;52.88;24.88;;;0.00;99.90;;;;;;5057280;28;20043;-78
2024/01/06 01:21:30;;;;;;;53.53;26.88;;;0.00;99.90;;;;;;5057015;28;20103;-78
2024/01/06 01:23:56;;;;;;;49.00;24.67;;;0.10;99.90;;;;;;5057025;28;20025;-78
2024/01/06 01:26:21;;;;;;;53.85;26.27;;;0.10;99.90;;;;;;5057045;28;20065;-79
2024/01/06 01:28:47;;;;;;;47.88;24.10;;;0.10;99.90;;;;;;5074742;28;20036;-79
2024/01/06 01:31:13;;;;;;;52.72;24.85;;;0.10;99.90;;;;;;5056680;28;20107;-79
2024/01/06 01:33:39;;;;;;;47.85;24.27;;;0.10;99.90;;;;;;5056090;28;20101;-79
2024/01/06 01:36:05;;;;;;;54.78;26.05;;;0.10;99.90;;;;;;5056715;28;20474;-78
2024/01/06 01:38:31;;;;;;;46.67;26.88;;;0.10;99.90;;;;;;5074830;28;20032;-79
2024/01/06 01:40:56;;;;;;;49.47;24.00;;;0.20;99.90;;;;;;5074425;28;20021;-77
2024/01/06 01:43:23;;;;;;;51.85;23.70;;;0.20;99.90;;;;;;5056194;28;20114;-77
2024/01/06 01:45:52;;;;;;;47.42;24.30;;;0.20;99.90;;;;;;5074507;28;20052;-78
2024/01/06 01:48:20;;;;;;;51.13;24.38;;;0.20;99.90;;;;;;5074606;28;20103;-80
2024/01/06 01:50:46;;;;;;;51.92;25.58;;;0.30;99.90;;;;;;5074193;28;20029;-77
2024/01/06 01:53:12;;;;;;;45.65;22.10;;;0.30;99.90;;;;;;5074533;28;20082;-80
2024/01/06 01:55:38;;;;;;;46.95;24.13;;;0.30;99.90;;;;;;5056370;28;20104;-79
2024/01/06 01:58:05;;;;;;;48.90;24.17;;;0.30;99.90;;;;;;5074307;28;20024;-77
2024/01/06 02:00:31;;;;;;;51.25;23.65;;;0.30;99.90;;;;;;5056101;28;20051;-78
2024/01/06 02:02:59;;;;;;;46.58;24.00;;;0.40;99.90;;;;;;5047883;28;20114;-80
2024/01/06 02:05:24;;;;;;;41.95;21.30;;;0.40;99.90;;;;;;5073750;28;20100;-78
2024/01/06 02:07:51;;;;;;;48.50;24.75;;;0.40;99.90;;;;;;5073934;28;20052;-80
2024/01/06 02:10:17;;;;;;;50.03;24.88;;;0.40;99.90;;;;;;5073917;28;20159;-80
2024/01/06 02:12:43;;;;;;;44.70;24.50;;;0.40;99.90;;;;;;5055693;28;20394;-78
2024/01/06 02:15:09;;;;;;;46.67;23.38;;;0.50;99.90;;;;;;5055997;28;20021;-79
2024/01/06 02:17:34;;;;;;;48.40;24.02;;;0.40;99.90;;;;;;5055559;28;20386;-79
2024/01/06 02:20:00;;;;;;;45.95;22.20;;;0.50;99.90;;;;;;5073408;28;20103;-78
2024/01/06 02:22:25;;;;;;;47.42;22.23;;;0.50;99.90;;;;;;5055605;28;20047;-79
2024/01/06 02:24:51;;;;;;;51.10;25.27;;;0.50;99.90;;;;;;5073721;28;20048;-78
2024/01/06 02:27:17;;;;;;;45.42;22.25;;;0.50;99.90;;;;;;5073258;28;20500;-78
2024/01/06 02:29:42;;;;;;;43.97;23.73;;;0.60;99.90;;;;;;5055959;28;20398;-78
2024/01/06 02:32:08;;;;;;;47.47;21.83;;;0.60;99.90;;;;;;5073390;28;20498;-77
2024/01/06 02:34:34;;;;;;;45.35;22.75;;;0.60;99.90;;;;;;5055989;28;20024;-79
2024/01/06 02:37:00;;;;;;;43.22;22.95;;;0.60;99.90;;;;;;5073541;28;20013;-77
2024/01/06 02:39:25;;;;;;;46.22;23.65;;;0.60;99.90;;;;;;5055522;28;20021;-77
2024/01/06 02:41:51;;;;;;;39.40;22.25;;;0.70;99.90;;;;;;5042624;28;20013;-79
2024/01/06 02:44:17;;;;;;;43.15;21.75;;;0.70;99.90;;;;;;5055633;28;20394;-79
2024/01/06 02:46:42;;;;;;;45.05;22.25;;;0.70;99.90;;;;;;5073076;28;20526;-79
2024/01/06 02:49:08;;;;;;;44.20;20.58;;;0.70;99.90;;;;;;5073325;28;20036;-78
2024/01/06 02:51:34;;;;;;;43.25;20.98;;;0.70;99.90;;;;;;5055428;28;20029;-80
2024/01/06 02:53:59;;;;;;;43.50;21.88;;;0.80;99.90;;;;;;5073120;28;20048;-80
2024/01/06 02:56:25;;;;;;;43.88;22.58;;;0.80;99.90;;;;;;5060459;28;20024;-80
2024/01/06 02:58:51;;;;;;;43.38;22.80;;;0.80;99.90;;;;;;5073007;28;20020;-79
2024/01/06 03:01:17;;;;;;;42.80;21.50;;;0.80;99.90;;;;;;5058719;28;20025;-78
2024/01/06 03:03:43;;;;;;;39.40;20.63;;;0.80;99.90;;;;;;5072875;28;20043;-78
2024/01/06 03:06:09;;;;;;;45.40;22.55;;;0.80;99.90;;;;;;5057261;28;20485;-80
2024/01/06 03:08:34;;;;;;;40.78;20.85;;;0.80;99.90;;;;;;5055028;28;20034;-79
2024/01/06 03:11:01;;;;;;;43.75;21.60;;;0.80;99.90;;;;;;5054704;28;20046;-79
2024/01/06 03:13:26;;;;;;;44.53;20.83;;;0.90;99.90;;;;;;5055206;28;20047;-79
2024/01/06 03:15:52;;;;;;;44.53;22.73;;;0.90;99.90;;;;;;5054869;28;20920;-79
2024/01/06 03:18:18;;;;;;;36.95;20.05;;;0.90;99.90;;;;;;5054990;28;20478;-78
2024/01/06 03:20:43;;;;;;;44.58;22.35;;;0.90;99.90;;;;;;5054644;28;20044;-78
2024/01/06 03:23:09;;;;;;;40.42;19.00;;;1.00;99.90;;;;;;5063696;28;20087;-79
2024/01/06 03:25:34;;;;;;;46.40;21.40;;;1.00;99.90;;;;;;5071346;28;20547;-80
2024/01/06 03:28:01;;;;;;;39.47;21.23;;;1.00;99.90;;;;;;5054841;28;20024;-79
2024/01/06 03:30:26;;;;;;;39.75;20.73;;;0.90;99.90;;;;;;5054444;28;20037;-78
2024/01/06 03:32:52;;;;;;;38.28;20.50;;;0.90;99.90;;;;;;5054411;28;20413;-78
2024/01/06 03:35:17;;;;;;;42.13;20.67;;;0.90;99.90;;;;;;5072259;28;20486;-79
2024/01/06 03:37:43;;;;;;;40.08;20.15;;;1.00;99.90;;;;;;5054714;28;20027;-78
2024/01/06 03:40:09;;;;;;;42.00;21.13;;;1.00;99.90;;;;;;5054104;28;20027;-79
2024/01/06 03:42:36;;;;;;;38.55;19.33;;;1.00;99.90;;;;;;5072516;28;20393;-79
2024/01/06 03:45:02;;;;;;;39.15;19.90;;;1.00;99.90;;;;;;5071799;28;20024;-77
2024/01/06 03:47:28;;;;;;;38.67;20.88;;;1.00;99.90;;;;;;5054230;28;20024;-79
2024/01/06 03:49:53;;;;;;;37.03;20.25;;;1.00;99.90;;;;;;5072040;28;20032;-78
2024/01/06 03:52:19;;;;;;;43.50;21.88;;;1.00;99.90;;;;;;5054290;28;20115;-78
2024/01/06 03:54:45;;;;;;;40.30;20.30;;;1.00;99.90;;;;;;5054773;28;20038;-78
2024/01/06 03:57:10;;;;;;;36.90;21.02;;;1.00;99.90;;;;;;5060836;28;20378;-78
2024/01/06 03:59:36;;;;;;;38.95;21.48;;;1.00;99.90;;;;;;5060757;28;20020;-78
2024/01/06 04:02:02;;;;;;;40.08;20.58;;;1.10;99.90;;;;;;5078807;28;20581;-78
2024/01/06 04:04:27;;;;;;;42.47;21.35;;;1.10;99.90;;;;;;5078516;28;20077;-79
2024/01/06 04:06:53;;;;;;;44.08;20.88;;;1.10;99.90;;;;;;5060955;28;20087;-78
2024/01/06 04:09:19;;;;;;;39.22;20.35;;;1.20;99.90;;;;;;5078797;28;20043;-79
2024/01/06 04:11:44;;;;;;;34.22;18.30;;;1.10;99.90;;;;;;5060709;28;20025;-79
2024/01/06 04:14:10;;;;;;;44.83;21.98;;;1.20;99.90;;;;;;5060829;28;20025;-78
2024/01/06 04:16:35;;;;;;;39.97;18.90;;;1.20;99.90;;;;;;5060910;28;20474;-79
2024/01/06 04:19:01;;;;;;;35.78;19.55;;;1.20;99.90;;;;;;5060321;28;20486;-78
2024/01/06 04:21:27;;;;;;;35.45;19.17;;;1.20;99.90;;;;;;5061068;28;20382;-78
2024/01/06 04:23:52;;;;;;;38.92;19.27;;;1.30;99.90;;;;;;5078714;28;20039;-78
2024/01/06 04:26:18;;;;;;;38.72;20.27;;;1.30;99.90;;;;;;5078607;28;20358;-78
2024/01/06 04:28:44;;;;;;;36.38;18.92;;;1.30;99.90;;;;;;5078689;28;20021;-78
2024/01/06 04:31:09;;;;;;;39.28;20.80;;;1.30;99.90;;;;;;5060908;28;20074;-78
2024/01/06 04:33:36;;;;;;;35.90;20.00;;;1.30;99.90;;;;;;5078503;28;20041;-78
2024/01/06 04:36:02;;;;;;;40.17;20.63;;;1.40;99.90;;;;;;5078801;28;20095;-78
2024/01/06 04:38:28;;;;;;;41.28;20.38;;;1.40;99.90;;;;;;5060392;28;20115;-79
2024/01/06 04:40:53;;;;;;;45.25;21.75;;;1.40;99.90;;;;;;5060854;28;20056;-79
2024/01/06 04:43:20;;;;;;;50.58;24.80;;;1.40;99.90;;;;;;5044230;28;20449;-79
2024/01/06 04:45:46;;;;;;;45.63;23.00;;;1.40;99.90;;;;;;5078604;28;20138;-77
2024/01/06 04:48:11;;;;;;;37.55;20.23;;;1.40;99.90;;;;;;5060104;28;20031;-80
2024/01/06 04:50:37;;;;;;;37.92;20.38;;;1.40;99.90;;;;;;5078226;28;20486;-79
2024/01/06 04:53:03;;;;;;;36.08;18.90;;;1.40;99.90;;;;;;5060377;28;20013;-79
2024/01/06 04:55:28;;;;;;;30.33;17.83;;;1.50;99.90;;;;;;5060362;28;20024;-79
2024/01/06 04:57:54;;;;;;;35.33;18.80;;;1.50;99.90;;;;;;5059923;28;20063;-80
2024/01/06 05:00:20;;;;;;;35.45;17.23;;;1.50;99.90;;;;;;5060626;28;20048;-80
2024/01/06 05:02:45;;;;;;;36.40;18.35;;;1.50;99.90;;;;;;5060017;28;20020;-80
2024/01/06 05:05:11;;;;;;;34.60;17.45;;;1.50;99.90;;;;;;5059811;28;20062;-80
2024/01/06 05:07:37;;;;;;;33.30;18.27;;;1.60;99.90;;;;;;5073803;28;20020;-79
2024/01/06 05:10:02;;;;;;;31.77;16.45;;;1.60;99.90;;;;;;5057146;28;20021;-79
2024/01/06 05:12:28;;;;;;;35.45;18.42;;;1.60;99.90;;;;;;5074758;28;20562;-79
2024/01/06 05:14:54;;;;;;;38.22;19.75;;;1.60;99.90;;;;;;5056679;28;20067;-79
2024/01/06 05:17:19;;;;;;;40.95;18.67;;;1.60;99.90;;;;;;5056780;28;20158;-78
2024/01/06 05:19:45;;;;;;;39.10;19.45;;;1.60;99.90;;;;;;5056485;28;20111;-79
2024/01/06 05:22:11;;;;;;;37.53;20.73;;;1.70;99.90;;;;;;5074783;28;20025;-78
2024/01/06 05:24:36;;;;;;;42.88;23.42;;;1.70;99.90;;;;;;5056094;28;20029;-79
2024/01/06 05:27:02;;;;;;;31.48;18.05;;;1.70;99.90;;;;;;5056055;28;20494;-79
2024/01/06 05:29:28;;;;;;;37.17;18.15;;;1.80;99.90;;;;;;5074453;28;20119;-79
2024/01/06 05:31:53;;;;;;;33.17;18.20;;;1.70;99.90;;;;;;5055840;28;20016;-80
2024/01/06 05:34:19;;;;;;;33.42;18.92;;;1.80;99.90;;;;;;5056691;28;20032;-80
2024/01/06 05:36:45;;;;;;;33.70;17.38;;;1.70;99.90;;;;;;5073237;28;20386;-79
2024/01/06 05:39:10;;;;;;;34.25;17.85;;;1.70;99.90;;;;;;5074506;28;20495;-79
2024/01/06 05:41:40;;;;;;;34.08;18.58;;;1.70;99.90;;;;;;5074396;28;20051;-80
2024/01/06 05:44:06;;;;;;;38.63;19.23;;;1.70;99.90;;;;;;5056750;28;20012;-79
2024/01/06 05:46:32;;;;;;;31.88;17.80;;;1.80;99.90;;;;;;5056358;28;20023;-79
2024/01/06 05:48:57;;;;;;;33.60;17.95;;;1.80;99.90;;;;;;5055850;28;20027;-79
2024/01/06 05:51:23;;;;;;;35.17;19.00;;;1.80;99.90;;;;;;5074417;28;20270;-79
2024/01/06 05:53:49;;;;;;;30.27;16.75;;;1.80;99.90;;;;;;5056109;28;20051;-78
2024/01/06 05:56:27;;;;;;;30.95;15.82;;;1.80;99.90;;;;;;5056314;28;20021;-79
2024/01/06 05:58:53;;;;;;;30.60;15.85;;;1.80;99.90;;;;;;5069056;28;20032;-79
2024/01/06 06:01:19;;;;;;;29.65;16.40;;;1.80;99.90;;;;;;5078298;28;20382;-78
2024/01/06 06:03:46;;;;;;;33.50;17.98;;;1.80;99.90;;;;;;5065869;28;20020;-76
2024/01/06 06:06:12;;;;;;;29.90;17.65;;;1.90;99.90;;;;;;5061474;28;20016;-78
2024/01/06 06:08:39;;;;;;;37.13;19.23;;;1.90;99.90;;;;;;5079870;28;20096;-79
2024/01/06 06:11:10;;;;;;;34.42;18.38;;;1.90;99.90;;;;;;5073668;28;20478;-78
2024/01/06 06:13:38;;;;;;;34.67;18.48;;;1.90;99.90;;;;;;5067893;28;20012;-78
2024/01/06 06:16:04;;;;;;;29.95;17.63;;;1.90;99.90;;;;;;5067421;28;20567;-77
2024/01/06 06:18:30;;;;;;;36.88;19.15;;;1.90;99.90;;;;;;5066850;28;20362;-78
2024/01/06 06:20:56;;;;;;;35.75;17.10;;;2.00;99.90;;;;;;5077677;28;20024;-77
2024/01/06 06:23:24;;;;;;;33.55;18.15;;;2.00;99.90;;;;;;5072201;28;20439;-78
2024/01/06 06:25:51;;;;;;;33.72;19.00;;;2.00;99.90;;;;;;5070381;28;20028;-78
2024/01/06 06:28:16;;;;;;;33.58;17.58;;;2.10;99.90;;;;;;5062515;28;20489;-78
2024/01/06 06:30:43;;;;;;;30.20;16.73;;;2.10;99.90;;;;;;5081777;28;20044;-79
2024/01/06 06:33:08;;;;;;;33.10;17.27;;;2.10;99.90;;;;;;5089000;28;20105;-77
2024/01/06 06:35:34;;;;;;;34.13;18.05;;;2.10;99.90;;;;;;5065864;28;20017;-79
2024/01/06 06:38:00;;;;;;;36.08;18.25;;;2.10;99.90;;;;;;5069505;28;20021;-79
2024/01/06 06:40:25;;;;;;;32.03;18.02;;;2.10;99.90;;;;;;5075311;28;20389;-79
2024/01/06 06:42:51;;;;;;;32.42;17.45;;;2.10;99.90;;;;;;5073412;28;20017;-79
2024/01/06 06:45:20;;;;;;;30.60;17.02;;;2.10;99.90;;;;;;5057613;28;20028;-79
2024/01/06 06:47:45;;;;;;;33.78;16.95;;;2.10;99.90;;;;;;5067109;28;20016;-79
2024/01/06 06:50:11;;;;;;;31.40;18.63;;;2.10;99.90;;;;;;5062313;28;20043;-79
2024/01/06 06:52:37;;;;;;;34.78;19.02;;;2.00;99.90;;;;;;5073274;28;20107;-79
2024/01/06 06:55:03;;;;;;;38.45;21.17;;;2.00;99.90;;;;;;5079808;28;20070;-79
2024/01/06 06:57:29;;;;;;;43.10;22.55;;;2.00;99.90;;;;;;5072878;28;20121;-79
2024/01/06 06:59:54;;;;;;;39.75;22.13;;;2.00;99.90;;;;;;5081938;28;20156;-79
2024/01/06 07:02:20;;;;;;;42.45;22.48;;;2.00;99.90;;;;;;5066050;28;20027;-80
2024/01/06 07:04:46;;;;;;;45.40;23.45;;;1.90;99.90;;;;;;5080290;28;20474;-78
2024/01/06 07:07:11;;;;;;;37.47;22.30;;;1.90;99.90;;;;;;5082699;28;20040;-78
2024/01/06 07:09:37;;;;;;;37.10;21.20;;;1.90;99.90;;;;;;5079621;28;20063;-79
2024/01/06 07:12:03;;;;;;;37.67;20.13;;;1.80;99.90;;;;;;5057812;28;20070;-79
2024/01/06 07:14:29;;;;;;;41.97;21.38;;;1.90;99.90;;;;;;5044030;28;20116;-79
2024/01/06 07:16:56;;;;;;;34.53;20.17;;;1.90;99.90;;;;;;5053772;28;20474;-78
2024/01/06 07:19:21;;;;;;;37.58;20.17;;;1.90;99.90;;;;;;5067330;28;20062;-78
2024/01/06 07:21:47;;;;;;;37.60;21.30;;;1.90;99.90;;;;;;5081381;28;20431;-79
2024/01/06 07:24:13;;;;;;;42.78;22.60;;;1.90;99.90;;;;;;5069203;28;20485;-79
2024/01/06 07:26:39;;;;;;;52.47;25.75;;;1.90;99.90;;;;;;5071480;28;20029;-80
2024/01/06 07:29:04;;;;;;;57.63;29.90;;;1.90;99.90;;;;;;5059560;28;20107;-79
2024/01/06 07:31:30;;;;;;;54.40;29.73;;;1.90;99.90;;;;;;5076702;28;20497;-79
2024/01/06 07:33:55;;;;;;;52.83;29.70;;;2.00;99.90;;;;;;5064947;28;20044;-78
2024/01/06 07:36:22;;;;;;;44.97;25.35;;;2.00;99.90;;;;;;5057985;28;20025;-78
2024/01/06 07:38:47;;;;;;;50.28;25.95;;;2.00;99.90;;;;;;5060226;28;20032;-78
2024/01/06 07:41:13;;;;;;;54.58;27.20;;;2.00;99.90;;;;;;5065365;28;20939;-79
2024/01/06 07:43:39;;;;;;;55.80;29.70;;;1.90;99.90;;;;;;5085483;28;20061;-77
2024/01/06 07:46:06;;;;;;;57.85;30.30;;;1.90;99.90;;;;;;5062880;28;20082;-77
2024/01/06 07:48:32;;;;;;;53.13;29.17;;;1.90;99.90;;;;;;5063100;28;20092;-76
2024/01/06 07:50:58;;;;;;;59.13;30.55;;;1.90;99.90;;;;;;5065527;28;20560;-76
2024/01/06 07:53:23;;;;;;;56.35;29.40;;;1.90;99.90;;;;;;5055089;28;20032;-78
2024/01/06 07:55:49;;;;;;;56.78;29.23;;;1.90;99.90;;;;;;5053138;28;20052;-77
2024/01/06 07:58:15;;;;;;;49.33;27.35;;;1.90;99.90;;;;;;5067910;28;20060;-77
2024/01/06 08:00:41;;;;;;;51.95;30.10;;;1.90;99.90;;;;;;5054784;28;20036;-78
2024/01/06 08:03:07;;;;;;;57.63;29.95;;;1.90;99.90;;;;;;5071828;28;20028;-78
2024/01/06 08:05:33;;;;;;;62.20;32.45;;;2.00;99.90;;;;;;5053379;28;20031;-77
2024/01/06 08:07:58;;;;;;;66.47;33.38;;;1.90;99.90;;;;;;5056523;28;20024;-80
2024/01/06 08:10:24;;;;;;;61.05;32.45;;;2.00;99.90;;;;;;5059079;28;20043;-77
2024/01/06 08:12:49;;;;;;;64.93;32.42;;;2.00;99.90;;;;;;5057516;28;20024;-77
2024/01/06 08:15:15;;;;;;;66.60;33.35;;;2.00;99.90;;;;;;5070226;28;20022;-77
2024/01/06 08:17:41;;;;;;;65.88;34.40;;;2.00;99.90;;;;;;5083925;28;20081;-77
2024/01/06 08:20:08;;;;;;;63.80;33.13;;;2.00;99.90;;;;;;5057774;28;20493;-76
2024/01/06 08:22:34;;;;;;;65.13;36.55;;;2.00;99.90;;;;;;5070809;28;20027;-77
2024/01/06 08:24:59;;;;;;;67.28;36.28;;;2.00;99.90;;;;;;5071321;28;20039;-78
2024/01/06 08:27:25;;;;;;;60.35;34.90;;;2.00;99.90;;;;;;5068803;28;20028;-78
2024/01/06 08:29:51;;;;;;;73.07;36.28;;;2.00;99.90;;;;;;5061400;28;20046;-76
2024/01/06 08:32:16;;;;;;;66.45;36.60;;;2.10;99.90;;;;;;5058610;28;20051;-78
2024/01/06 08:34:42;;;;;;;62.58;34.33;;;2.10;99.90;;;;;;5057444;28;20024;-77
2024/01/06 08:37:08;;;;;;;66.43;34.65;;;2.10;99.90;;;;;;5064754;28;20044;-80
2024/01/06 08:39:33;;;;;;;57.25;34.85;;;2.20;99.90;;;;;;5059306;28;20077;-78
2024/01/06 08:41:59;;;;;;;66.50;37.08;;;2.20;99.90;;;;;;5065601;28;20039;-78
2024/01/06 08:44:25;;;;;;;70.30;35.42;;;2.10;99.90;;;;;;5067516;28;20020;-78
2024/01/06 08:46:50;;;;;;;71.55;37.50;;;2.20;99.90;;;;;;5063772;28;20381;-78
2024/01/06 08:49:17;;;;;;;73.43;38.75;;;2.10;99.90;;;;;;5078404;28;20025;-78
2024/01/06 08:51:43;;;;;;;76.22;38.03;;;2.20;99.90;;;;;;5081508;28;20044;-79
2024/01/06 08:54:09;;;;;;;78.97;38.60;;;2.20;99.90;;;;;;5083236;28;20035;-78
2024/01/06 08:56:34;;;;;;;73.40;40.60;;;2.20;99.90;;;;;;5090040;28;20389;-78
2024/01/06 08:59:00;;;;;;;77.80;39.65;;;2.20;99.90;;;;;;5067986;28;20023;-78
2024/01/06 09:01:26;;;;;;;77.68;37.40;;;2.30;99.90;;;;;;5064745;28;20052;-78
2024/01/06 09:03:51;;;;;;;83.10;43.03;;;2.30;99.90;;;;;;5057903;28;20021;-78
2024/01/06 09:06:17;;;;;;;73.72;41.17;;;2.30;99.90;;;;;;5077610;28;20021;-77
2024/01/06 09:08:43;;;;;;;80.15;43.33;;;2.40;99.90;;;;;;5075757;28;20074;-77
2024/01/06 09:11:08;;;;;;;84.85;44.08;;;2.40;99.90;;;;;;5073914;28;20040;-76
2024/01/06 09:13:34;;;;;;;82.50;41.40;;;2.40;99.90;;;;;;5077654;28;20074;-78
2024/01/06 09:16:03;;;;;;;74.63;40.78;;;2.40;99.90;;;;;;5072915;28;20024;-78
2024/01/06 09:18:28;;;;;;;68.38;37.92;;;2.40;99.90;;;;;;5092771;28;20020;-78
2024/01/06 09:20:54;;;;;;;74.45;40.65;;;2.50;99.90;;;;;;5080755;28;20031;-79
2024/01/06 09:23:21;;;;;;;72.68;37.85;;;2.50;99.90;;;;;;5072438;28;20490;-77
2024/01/06 09:25:49;;;;;;;69.97;35.83;;;2.30;99.90;;;;;;5071844;28;20020;-78
2024/01/06 09:28:15;;;;;;;74.15;37.28;;;2.30;99.90;;;;;;5091764;28;20161;-77
2024/01/06 09:30:41;;;;;;;61.72;34.25;;;2.30;99.90;;;;;;5071831;28;20473;-77
2024/01/06 09:33:08;;;;;;;74.88;35.92;;;2.20;99.90;;;;;;5082042;28;20063;-79
2024/01/06 09:35:34;;;;;;;63.60;35.60;;;2.10;99.90;;;;;;5062528;28;20016;-78
2024/01/06 09:37:59;;;;;;;67.43;37.70;;;2.10;99.90;;;;;;5057604;28;20029;-77
2024/01/06 09:40:25;;;;;;;67.47;36.92;;;2.10;99.90;;;;;;5058449;28;20496;-77
2024/01/06 09:42:53;;;;;;;71.68;37.25;;;2.10;99.90;;;;;;5080809;28;20062;-78
2024/01/06 09:45:20;;;;;;;75.07;41.45;;;2.10;99.90;;;;;;5057548;28;20496;-77
2024/01/06 09:47:49;;;;;;;77.25;42.55;;;2.10;99.90;;;;;;5057537;28;20020;-78
2024/01/06 09:50:19;;;;;;;82.43;43.25;;;2.10;99.90;;;;;;5056873;28;20035;-77
2024/01/06 09:52:52;;;;;;;78.97;43.13;;;2.10;99.90;;;;;;5059059;28;20051;-78
2024/01/06 09:55:18;;;;;;;;;;;2.10;99.90;;;;;;5081194;28;20024;-77
2024/01/06 09:57:45;;;;;;;76.72;39.28;;;2.10;99.90;;;;;;5059873;28;19908;-76
2024/01/06 10:00:12;;;;;;;72.40;38.63;;;2.20;99.90;;;;;;5072604;28;20496;-77
2024/01/06 10:02:38;;;;;;;61.92;34.25;;;2.20;99.90;;;;;;5069524;28;20111;-77
2024/01/06 10:05:04;;;;;;;66.47;35.95;;;2.20;99.90;;;;;;5063315;28;20108;-78
2024/01/06 10:07:30;;;;;;;73.13;39.83;;;2.20;99.90;;;;;;5087522;28;20111;-78
2024/01/06 10:09:56;;;;;;;70.47;39.50;;;2.20;99.90;;;;;;5072943;28;20074;-74
2024/01/06 10:12:25;;;;;;;68.65;36.88;;;2.30;99.90;;;;;;5062791;28;20020;-77
2024/01/06 10:14:51;;;;;;;75.13;38.67;;;2.40;99.90;;;;;;5090348;28;20024;-80
2024/01/06 10:17:18;;;;;;;70.80;40.55;;;2.40;99.90;;;;;;5074721;28;20035;-80
2024/01/06 10:19:50;;;;;;;66.68;34.38;;;2.40;99.90;;;;;;5061674;28;20077;-78
2024/01/06 10:22:16;;;;;;;68.73;34.13;;;2.40;99.90;;;;;;5058580;28;20020;-81
2024/01/06 10:24:42;;;;;;;75.78;35.42;;;2.40;99.90;;;;;;5057640;28;20279;-78
2024/01/06 10:27:08;;;;;;;69.43;38.03;;;2.40;99.90;;;;;;5080442;28;20032;-79
2024/01/06 10:29:34;;;;;;;79.30;38.70;;;2.40;99.90;;;;;;5073714;28;20485;-82
2024/01/06 10:32:00;;;;;;;87.28;42.85;;;2.50;99.90;;;;;;5077045;28;20028;-80
2024/01/06 10:34:26;;;;;;;92.88;46.63;;;2.50;99.90;;;;;;5066051;28;20024;-79
2024/01/06 10:36:52;;;;;;;80.90;42.75;;;2.50;99.90;;;;;;5062178;28;20082;-79
2024/01/06 10:39:19;;;;;;;76.78;39.58;;;2.50;99.90;;;;;;5060517;28;20040;-77
2024/01/06 10:41:46;;;;;;;72.28;35.63;;;2.50;99.90;;;;;;5080950;28;20025;-76
2024/01/06 10:44:14;;;;;;;66.38;34.83;;;2.50;99.90;;;;;;5064966;28;20024;-77
2024/01/06 10:46:41;;;;;;;64.07;35.10;;;2.40;99.90;;;;;;5060233;28;20082;-86
2024/01/06 10:49:10;;;;;;;64.03;33.03;;;2.30;99.90;;;;;;5063244;28;20020;-87
2024/01/06 10:51:40;;;;;;;67.78;35.22;;;2.30;99.90;;;;;;5078650;28;20115;-85
2024/01/06 10:54:06;;;;;;;62.25;33.35;;;2.20;99.90;;;;;;5083420;28;20065;-88
2024/01/06 10:56:38;;;;;;;60.30;30.70;;;2.20;99.90;;;;;;5049926;28;20111;-81
2024/01/06 10:59:04;;;;;;;59.40;29.63;;;2.10;99.90;;;;;;5056030;28;20081;-81
2024/01/06 11:01:32;;;;;;;58.33;29.50;;;2.10;99.90;;;;;;5077251;28;20102;-81
2024/01/06 11:03:59;;;;;;;46.70;24.98;;;2.10;99.90;;;;;;5056672;28;20500;-82
2024/01/06 11:06:26;;;;;;;55.58;27.27;;;1.90;99.90;;;;;;5055103;28;20518;-80
2024/01/06 11:09:16;;;;;;;52.33;25.65;;;2.00;99.90;;;;;;5063211;28;20031;-80
2024/01/06 11:11:42;;;;;;;52.75;27.45;;;2.00;99.90;;;;;;5054587;28;20411;-78
2024/01/06 11:14:25;;;;;;;49.78;26.30;;;1.90;99.90;;;;;;5070246;28;20023;-83
2024/01/06 11:16:52;;;;;;;51.70;27.58;;;2.00;99.90;;;;;;5070137;28;20029;-82
2024/01/06 11:19:39;;;;;;;47.42;24.50;;;1.90;99.90;;;;;;5059275;28;20490;-80
2024/01/06 11:22:31;;;;;;;47.65;24.48;;;2.00;99.90;;;;;;5077999;28;20486;-78
2024/01/06 11:25:03;;;;;;;49.60;27.45;;;1.90;99.90;;;;;;5071513;28;20028;-78
2024/01/06 11:27:31;;;;;;;44.85;23.92;;;1.90;99.90;;;;;;5055064;28;20055;-80
2024/01/06 11:30:05;;;;;;;45.58;22.95;;;1.90;99.90;;;;;;5064472;28;20119;-79
2024/01/06 11:32:38;;;;;;;37.97;20.25;;;1.90;99.90;;;;;;5089007;28;20044;-80
2024/01/06 11:35:11;;;;;;;;;;;1.80;99.90;;;;;;5065669;28;20027;-79
2024/01/06 11:37:40;;;;;;;41.42;21.40;;;1.90;99.90;;;;;;5059715;28;20332;-79
2024/01/06 11:40:13;;;;;;;44.95;22.58;;;1.90;99.90;;;;;;5076291;28;20034;-79
2024/01/06 11:42:41;;;;;;;43.17;22.17;;;2.00;99.90;;;;;;5057616;28;20099;-80
2024/01/06 11:45:08;;;;;;;42.45;21.58;;;2.00;99.90;;;;;;5075277;28;20102;-80
2024/01/06 11:47:34;;;;;;;38.10;21.08;;;2.00;99.90;;;;;;5052816;28;20386;-79
2024/01/06 11:50:04;;;;;;;32.92;19.00;;;2.00;99.90;;;;;;5078022;28;20042;-79
2024/01/06 11:52:34;;;;;;;33.17;17.35;;;1.90;99.90;;;;;;5074638;28;20055;-79
2024/01/06 11:55:00;;;;;;;33.53;18.88;;;1.90;99.90;;;;;;5056661;28;20021;-79
2024/01/06 11:57:27;;;;;;;36.97;19.23;;;1.90;99.90;;;;;;5052643;28;20035;-78
2024/01/06 11:59:53;;;;;;;37.65;17.80;;;2.00;99.90;;;;;;5055870;28;20486;-78
2024/01/06 12:02:19;;;;;;;40.33;19.45;;;2.00;99.90;;;;;;5060346;28;20035;-79
2024/01/06 12:04:50;;;;;;;35.70;19.10;;;2.00;99.90;;;;;;5055657;28;20013;-81
2024/01/06 12:07:17;;;;;;;34.70;18.30;;;2.00;99.90;;;;;;5054215;28;20019;-79
2024/01/06 12:09:43;;;;;;;33.95;17.25;;;2.00;99.90;;;;;;5054069;28;20123;-80
2024/01/06 12:12:14;;;;;;;32.33;17.92;;;2.00;99.90;;;;;;5053436;28;20115;-79
2024/01/06 12:14:42;;;;;;;33.50;17.13;;;1.90;99.90;;;;;;5058845;28;20530;-80
2024/01/06 12:17:08;;;;;;;31.35;17.98;;;1.90;99.90;;;;;;5059468;28;20432;-81
2024/01/06 12:19:34;;;;;;;30.42;16.95;;;1.90;99.90;;;;;;5062517;28;20032;-79
2024/01/06 12:21:59;;;;;;;34.08;18.85;;;1.90;99.90;;;;;;5060095;28;20486;-79
2024/01/06 12:24:28;;;;;;;31.98;17.17;;;1.90;99.90;;;;;;5058563;28;20047;-83
2024/01/06 12:26:56;;;;;;;31.92;17.25;;;1.90;99.90;;;;;;5075481;28;20104;-80
2024/01/06 12:29:22;;;;;;;33.22;17.40;;;2.00;99.90;;;;;;5072170;28;20028;-81
2024/01/06 12:31:47;;;;;;;33.42;17.50;;;1.90;99.90;;;;;;5081323;28;20028;-80